KGCC/GCC METAR and TAF weather

Enter ICAO airport designator
Station Type Date Time Source
KGCC METAR 2021/09/28 16:53 UTC NOAA

KGCC 281653Z AUTO 17016KT 10SM CLR 28/M03 A2971 RMK AO2 SLP007 T02831028


Station Type Date Time Source
KGCC Decoded METAR 2021/09/28 16:53 UTC NOAA

GILLETTE-CAMPBELL CTY AIRPORT , WY, United States (KGCC) 44-20N 105-33W 1320M
Sep 28, 2021 - 12:53 PM EDT / 2021.09.28 1653 UTC
Wind: from the S (170 degrees) at 18 MPH (16 KT):0
Visibility: 10 mile(s):0
Sky conditions: clear
Temperature: 82.9 F (28.3 C)
Dew Point: 27.0 F (-2.8 C)
Relative Humidity: 12%
Pressure (altimeter): 29.71 in. Hg (1006 hPa)
ob: KGCC 281653Z AUTO 17016KT 10SM CLR 28/M03 A2971 RMK AO2 SLP007 T02831028
cycle: 17

Station Type Date Time Source
KGCC TAF 2021/09/28 18:22 UTC NOAA

TAF KGCC 281720Z 2818/2918 19018G28KT P6SM SCT200
FM290100 24018G28KT P6SM BKN120
FM290400 33030G40KT P6SM SCT040 BKN060

Example: see airport list